Airfield :
LOGIN :

Register | Disclaimer

   EN    FR    IT 

 










Legend :    VFR   Marginal VFR   IFR   Intensive IFR   Very Intensive IFR
Visi :
Ceiling :
>= 8 km
>= 3000ft
5 to 8 km
1000 to 3000 ft
1500m to 5 km
500 to 1000 ft
800 to 1500m
200 to 500 ft
< 800m
< 200 ft
Symbols :   Thunderstorms  Fog  Heavy snow  Heavy precipitations  Wind > 20 kt
SIGMETs :     Misc.  Thunderstorms  Icing  Turbulence  Mountain Waves  Volcanic Ashes







- Airport Elevation : 614 ft
- IATA code : CRL


EBCI - Charleroi

CURRENT METAR :
  • 210020Z 29007KT 250V350 1200 R24/P2000N BR BKN002 BKN003 10/09 Q1013 TEMPO 0800 FG BKN002

EXPIRED METARs :
  • 202350Z 29005KT 240V350 1200 R24/P2000N BR BKN002 BKN003 10/10 Q1013 TEMPO 0800 FG BKN002
  • 202320Z 29006KT 250V330 1200 R24/P2000N BR BKN002 BKN003 10/10 Q1013 TEMPO 0800 FG BKN002
  • 202250Z 29005KT 260V330 1200 R24/P2000N BR BKN002 BKN003 10/10 Q1013 TEMPO 0800 FG BKN002
  • 202220Z 32007KT 290V350 1200 R24/P2000N BR BKN002 BKN003 10/10 Q1013 TEMPO 0800 FG BKN002
  • 202150Z 30005KT 260V340 0900 R24/P2000N FG BKN002 BKN003 10/10 Q1013 TEMPO 0800 FG BKN002

TAF TAF EBCI
Valid from the 21 at 00:00 until the 22 at 06:00 UTC


202300Z 2100/2206 31008KT 4500 BR BKN007
TEMPO 2100/2108 3000 -DZ BKN004
PROB40
TEMPO 2100/2106 0800 FG BKN001
BECMG 2107/2109 8000 NSW FEW015 SCT030
No reported NOTAMs for that airfield.



MET'MAP, your aeronautical weather chart ! - Copyright ORBIFLY December 2007 - Disclaimer

ORBIFLY MET'MAP TEAM :

Programming & Development : Alexandra Zaïnal
Concept & Development : Baudouin d'Aumeries
Co-Development & Prog : Marc-Olivier Méhu
Technical & hardware support : Manuel Goepfert

Contact : metmap@orbifly.com




SOURCES & CREDITS :

   NOAA